createdAt,value
2023-02-08T00:02:09.338Z,38.08
2023-02-08T00:04:36.777Z,38.83
2023-02-08T00:07:04.380Z,35.22
2023-02-08T00:09:32.095Z,33.15
2023-02-08T00:11:59.572Z,36.55
2023-02-08T00:14:27.054Z,37.17
2023-02-08T00:16:55.882Z,38.25
2023-02-08T00:19:23.333Z,36.80
2023-02-08T00:21:50.825Z,39.33
2023-02-08T00:24:18.287Z,40.00
2023-02-08T00:26:45.805Z,41.75
2023-02-08T00:29:13.259Z,38.55
2023-02-08T00:31:40.834Z,41.85
2023-02-08T00:34:09.678Z,40.95
2023-02-08T00:36:37.232Z,40.50
2023-02-08T00:39:05.236Z,34.80
2023-02-08T00:41:32.729Z,36.15
2023-02-08T00:44:00.191Z,39.78
2023-02-08T00:46:27.760Z,40.88
2023-02-08T00:48:55.308Z,39.53
2023-02-08T00:51:24.123Z,40.90
2023-02-08T00:53:51.571Z,40.55
2023-02-08T00:56:19.058Z,40.38
2023-02-08T00:58:46.507Z,38.92
2023-02-08T01:01:16.829Z,36.78
2023-02-08T01:03:44.937Z,38.35
2023-02-08T01:06:14.990Z,33.20
2023-02-08T01:08:43.935Z,37.88
2023-02-08T01:11:14.051Z,38.42
2023-02-08T01:13:42.369Z,39.55
2023-02-08T01:16:12.319Z,38.80
2023-02-08T01:18:40.386Z,40.38
2023-02-08T01:21:09.338Z,36.90
2023-02-08T01:23:37.371Z,39.28
2023-02-08T01:26:06.814Z,39.33
2023-02-08T01:28:37.183Z,40.30
2023-02-08T01:31:06.338Z,34.28
2023-02-08T01:33:35.502Z,30.55
2023-02-08T01:36:02.993Z,37.88
2023-02-08T01:38:30.868Z,37.10
2023-02-08T01:40:58.465Z,38.05
2023-02-08T01:43:29.358Z,29.65
2023-02-08T01:45:56.998Z,34.45
2023-02-08T01:48:27.822Z,34.80
2023-02-08T01:50:57.793Z,36.38
2023-02-08T01:53:26.461Z,27.95
2023-02-08T01:55:56.155Z,34.42
2023-02-08T01:58:26.869Z,36.15
2023-02-08T02:00:54.629Z,33.95
2023-02-08T02:03:23.444Z,27.45
2023-02-08T02:05:53.484Z,29.08
2023-02-08T02:08:21.174Z,28.27
2023-02-08T02:10:50.419Z,26.83
2023-02-08T02:13:20.747Z,27.17
2023-02-08T02:15:50.140Z,26.23
2023-02-08T02:18:23.160Z,29.63
2023-02-08T02:21:02.622Z,26.92
2023-02-08T02:24:06.479Z,24.88
2023-02-08T02:27:00.240Z,25.70
2023-02-08T02:29:50.443Z,23.88
2023-02-08T02:32:29.559Z,22.27
2023-02-08T02:35:00.612Z,28.10
2023-02-08T02:37:37.672Z,25.50
2023-02-08T02:40:11.424Z,26.67
2023-02-08T02:43:04.468Z,31.80
2023-02-08T02:45:36.112Z,24.13
2023-02-08T02:48:07.864Z,22.73
2023-02-08T02:50:37.650Z,25.13
2023-02-08T02:53:11.350Z,26.48
2023-02-08T02:55:43.210Z,24.77
2023-02-08T02:58:12.197Z,25.67
2023-02-08T03:00:40.004Z,31.73
2023-02-08T03:03:16.075Z,31.88
2023-02-08T03:05:43.570Z,33.05
2023-02-08T03:08:32.522Z,34.55
2023-02-08T03:11:15.720Z,32.05
2023-02-08T03:13:56.224Z,35.22
2023-02-08T03:16:28.644Z,32.63
2023-02-08T03:19:05.818Z,32.35
2023-02-08T03:21:40.053Z,33.85
2023-02-08T03:24:15.838Z,31.77
2023-02-08T03:26:51.503Z,30.80
2023-02-08T03:29:26.438Z,32.28
2023-02-08T03:31:57.934Z,35.05
2023-02-08T03:34:30.102Z,31.50
2023-02-08T03:37:01.021Z,27.95
2023-02-08T03:39:30.000Z,26.25
2023-02-08T03:42:00.660Z,24.25
2023-02-08T03:44:30.733Z,25.48
2023-02-08T03:47:01.138Z,29.73
2023-02-08T03:49:32.472Z,34.03
2023-02-08T03:52:02.592Z,28.10
2023-02-08T03:54:33.277Z,34.85
2023-02-08T03:57:05.496Z,35.55
2023-02-08T03:59:38.036Z,27.70
2023-02-08T04:02:07.994Z,28.10
2023-02-08T04:04:38.596Z,33.03
2023-02-08T04:07:06.199Z,26.23
2023-02-08T04:09:33.653Z,26.88
2023-02-08T04:12:01.244Z,23.75
2023-02-08T04:14:28.708Z,27.52
2023-02-08T04:16:56.206Z,29.00
2023-02-08T04:19:23.692Z,28.30
2023-02-08T04:21:52.477Z,37.13
2023-02-08T04:24:20.294Z,34.67
2023-02-08T04:26:47.887Z,36.58
2023-02-08T04:29:15.449Z,36.28
2023-02-08T04:31:42.940Z,28.45
2023-02-08T04:34:10.463Z,27.33
2023-02-08T04:36:38.027Z,31.95
2023-02-08T04:39:06.855Z,35.83
2023-02-08T04:41:34.345Z,36.58
2023-02-08T04:44:01.880Z,27.63
2023-02-08T04:46:29.453Z,30.42
2023-02-08T04:48:58.847Z,32.97
2023-02-08T04:51:26.637Z,33.90
2023-02-08T04:53:57.090Z,35.72
2023-02-08T04:56:25.886Z,27.17
2023-02-08T04:58:53.383Z,25.42
2023-02-08T05:01:21.281Z,26.65
2023-02-08T05:03:49.117Z,27.42
2023-02-08T05:06:16.583Z,26.90
2023-02-08T05:08:46.692Z,26.05
2023-02-08T05:11:14.280Z,26.45
2023-02-08T05:13:43.144Z,24.77
2023-02-08T05:16:10.649Z,24.98
2023-02-08T05:18:38.150Z,25.05
2023-02-08T05:21:05.915Z,24.80
2023-02-08T05:23:33.557Z,27.23
2023-02-08T05:26:01.256Z,25.48
2023-02-08T05:28:28.757Z,31.15
2023-02-08T05:30:57.649Z,25.73
2023-02-08T05:33:25.261Z,44.55
2023-02-08T05:35:52.815Z,43.97
2023-02-08T05:38:20.315Z,37.97
2023-02-08T05:40:47.753Z,33.53
2023-02-08T05:43:15.231Z,32.83
2023-02-08T05:45:42.744Z,33.95
2023-02-08T05:48:11.547Z,32.33
2023-02-08T05:50:39.410Z,31.27
2023-02-08T05:53:07.074Z,27.60
2023-02-08T05:55:34.621Z,33.80
2023-02-08T05:58:02.131Z,33.70
2023-02-08T06:00:29.708Z,27.48
2023-02-08T06:02:58.374Z,25.17
2023-02-08T06:05:28.934Z,26.27
2023-02-08T06:07:56.395Z,32.63
2023-02-08T06:10:24.128Z,26.10
2023-02-08T06:12:51.574Z,25.05
2023-02-08T06:15:19.211Z,32.85
2023-02-08T06:17:46.673Z,33.45
2023-02-08T06:20:14.402Z,33.13
2023-02-08T06:22:43.206Z,25.15
2023-02-08T06:25:12.652Z,26.55
2023-02-08T06:27:40.190Z,29.33
2023-02-08T06:30:08.189Z,26.20
2023-02-08T06:32:35.687Z,25.23
2023-02-08T06:35:03.262Z,33.15
2023-02-08T06:37:30.735Z,32.10
2023-02-08T06:40:00.657Z,38.00
2023-02-08T06:42:28.323Z,28.83
2023-02-08T06:44:57.949Z,50.38
2023-02-08T06:47:26.639Z,39.88
2023-02-08T06:49:54.524Z,51.08
2023-02-08T06:52:22.697Z,38.75
2023-02-08T06:54:50.212Z,40.22
2023-02-08T06:57:19.041Z,36.47
2023-02-08T06:59:46.540Z,34.15
2023-02-08T07:02:15.415Z,35.65
2023-02-08T07:04:43.006Z,35.05
2023-02-08T07:07:10.758Z,29.25
2023-02-08T07:09:38.232Z,38.00
2023-02-08T07:12:05.986Z,31.08
2023-02-08T07:14:35.441Z,32.25
2023-02-08T07:17:04.253Z,31.10
2023-02-08T07:19:32.219Z,31.48
2023-02-08T07:22:03.073Z,44.95
2023-02-08T07:24:30.828Z,65.32
2023-02-08T07:26:58.468Z,39.20
2023-02-08T07:29:25.979Z,32.13
2023-02-08T07:31:54.927Z,30.35
2023-02-08T07:34:22.820Z,32.22
2023-02-08T07:36:50.297Z,29.60
2023-02-08T07:39:17.817Z,29.20
2023-02-08T07:41:45.323Z,27.25
2023-02-08T07:44:12.885Z,30.05
2023-02-08T07:46:40.956Z,28.33
2023-02-08T07:49:10.184Z,28.23
2023-02-08T07:51:37.912Z,26.05
2023-02-08T07:54:05.523Z,27.20
2023-02-08T07:56:33.373Z,27.38
2023-02-08T07:59:00.837Z,26.95
2023-02-08T08:01:28.353Z,22.98
2023-02-08T08:03:55.917Z,27.13
2023-02-08T08:06:27.970Z,24.55
2023-02-08T08:08:55.515Z,26.40
2023-02-08T08:11:23.070Z,25.38
2023-02-08T08:13:51.022Z,21.80
2023-02-08T08:16:19.060Z,22.33
2023-02-08T08:18:47.266Z,22.42
2023-02-08T08:21:15.332Z,24.40
2023-02-08T08:23:44.345Z,22.17
2023-02-08T08:26:14.833Z,28.50
2023-02-08T08:28:43.431Z,24.65
2023-02-08T08:31:12.315Z,22.23
2023-02-08T08:33:39.967Z,23.70
2023-02-08T08:36:08.384Z,24.65
2023-02-08T08:38:37.077Z,23.17
2023-02-08T08:41:09.458Z,27.63
2023-02-08T08:43:36.955Z,24.90
2023-02-08T08:46:06.682Z,22.63
2023-02-08T08:48:34.647Z,21.35
2023-02-08T08:51:02.512Z,20.65
2023-02-08T08:53:30.066Z,24.02
2023-02-08T08:55:57.549Z,22.33
2023-02-08T08:58:26.362Z,22.75
2023-02-08T09:00:54.021Z,22.95
2023-02-08T09:03:21.575Z,20.92
2023-02-08T09:05:49.066Z,20.58
2023-02-08T09:08:16.590Z,18.85
2023-02-08T09:10:44.226Z,20.48
2023-02-08T09:13:13.147Z,16.35
2023-02-08T09:15:42.245Z,20.98
2023-02-08T09:18:09.747Z,22.95
2023-02-08T09:20:38.680Z,18.95
2023-02-08T09:23:06.498Z,21.92
2023-02-08T09:25:34.333Z,20.90
2023-02-08T09:28:02.017Z,19.92
2023-02-08T09:30:29.526Z,19.50
2023-02-08T09:32:58.530Z,24.40
2023-02-08T09:35:26.032Z,25.80
2023-02-08T09:37:55.764Z,21.42
2023-02-08T09:40:25.412Z,21.33
2023-02-08T09:43:01.302Z,24.17
2023-02-08T09:45:43.049Z,24.77
2023-02-08T09:48:22.792Z,24.55
2023-02-08T09:50:53.855Z,23.15
2023-02-08T09:53:23.679Z,22.95
2023-02-08T09:55:57.299Z,24.85
2023-02-08T09:58:28.470Z,21.92
2023-02-08T10:00:56.864Z,21.25
2023-02-08T10:03:36.409Z,20.00
2023-02-08T10:06:07.492Z,22.55
2023-02-08T10:08:35.970Z,25.25
2023-02-08T10:11:17.766Z,25.17
2023-02-08T10:13:54.704Z,24.38
2023-02-08T10:16:36.898Z,24.50
2023-02-08T10:19:12.812Z,24.67
2023-02-08T10:21:49.642Z,27.50
2023-02-08T10:24:38.141Z,33.67
2023-02-08T10:27:11.906Z,26.38
2023-02-08T10:29:57.662Z,25.88
2023-02-08T10:32:42.899Z,25.80
2023-02-08T10:35:27.484Z,26.42
2023-02-08T10:37:56.587Z,23.15
2023-02-08T10:40:36.765Z,30.73
2023-02-08T10:43:14.075Z,27.67
2023-02-08T10:45:47.070Z,23.65
2023-02-08T10:48:16.957Z,26.58
2023-02-08T10:50:47.512Z,24.40
2023-02-08T10:53:16.979Z,25.02
2023-02-08T10:55:46.140Z,38.40
2023-02-08T10:58:17.124Z,27.42
2023-02-08T11:00:45.707Z,28.58
2023-02-08T11:03:18.847Z,23.45
2023-02-08T11:08:19.462Z,20.00
2023-02-08T11:10:57.696Z,25.40
2023-02-08T11:13:27.683Z,26.63
2023-02-08T11:15:57.687Z,24.67
2023-02-08T11:18:26.554Z,27.30
2023-02-08T11:20:57.777Z,28.65
2023-02-08T11:23:28.220Z,27.02
2023-02-08T11:25:56.852Z,24.35
2023-02-08T11:28:28.723Z,24.45
2023-02-08T11:31:01.449Z,24.48
2023-02-08T11:33:30.074Z,19.67
2023-02-08T11:36:01.760Z,25.45
2023-02-08T11:38:30.045Z,24.92
2023-02-08T11:40:59.119Z,23.48
2023-02-08T11:43:28.674Z,26.08
2023-02-08T11:45:57.460Z,25.63
2023-02-08T11:48:27.476Z,25.65
2023-02-08T11:50:57.662Z,25.38
2023-02-08T11:53:29.735Z,23.67
2023-02-08T11:56:06.411Z,23.70
2023-02-08T11:58:35.849Z,24.27
2023-02-08T12:01:06.046Z,23.17
2023-02-08T12:03:37.549Z,21.92
2023-02-08T12:06:22.722Z,17.83
2023-02-08T12:08:58.572Z,26.33
2023-02-08T12:11:30.502Z,32.75
2023-02-08T12:14:06.114Z,32.05
2023-02-08T12:16:56.156Z,32.00
2023-02-08T12:20:02.885Z,32.05
2023-02-08T12:22:31.178Z,30.80
2023-02-08T12:25:11.085Z,34.20
2023-02-08T12:27:42.836Z,31.00
2023-02-08T12:30:19.269Z,32.03
2023-02-08T12:33:01.592Z,29.05
2023-02-08T12:36:04.098Z,29.63
2023-02-08T12:39:18.585Z,31.52
2023-02-08T12:42:04.023Z,30.63
2023-02-08T12:44:39.901Z,30.50
2023-02-08T12:47:16.841Z,29.75
2023-02-08T12:49:52.770Z,29.35
2023-02-08T12:52:27.857Z,33.75
2023-02-08T12:54:58.708Z,30.02
2023-02-08T12:57:31.625Z,30.55
2023-02-08T13:02:31.426Z,26.38
2023-02-08T13:05:03.015Z,32.15
2023-02-08T13:07:33.171Z,31.00
2023-02-08T13:10:04.808Z,28.85
2023-02-08T13:12:35.537Z,28.98
2023-02-08T13:15:07.716Z,33.10
2023-02-08T13:17:43.073Z,28.38
2023-02-08T13:20:21.428Z,30.90
2023-02-08T13:22:50.681Z,29.73
2023-02-08T13:25:26.791Z,25.33
2023-02-08T13:27:56.046Z,29.42
2023-02-08T13:30:24.269Z,33.58
2023-02-08T13:32:52.468Z,33.35
2023-02-08T13:35:24.263Z,34.97
2023-02-08T13:37:53.798Z,34.03
2023-02-08T13:40:27.975Z,32.55
2023-02-08T13:43:01.089Z,33.55
2023-02-08T13:45:31.237Z,32.65
2023-02-08T13:48:00.616Z,32.70
2023-02-08T13:50:49.479Z,32.42
2023-02-08T13:53:18.050Z,27.40
2023-02-08T13:56:00.045Z,31.10
2023-02-08T13:59:04.506Z,31.27
2023-02-08T14:01:35.964Z,34.92
2023-02-08T14:04:37.685Z,39.05
2023-02-08T14:07:16.645Z,36.30
2023-02-08T14:10:02.227Z,37.38
2023-02-08T14:12:34.701Z,33.85
2023-02-08T14:15:27.204Z,35.42
2023-02-08T14:17:58.441Z,36.13
2023-02-08T14:20:30.561Z,32.15
2023-02-08T14:23:00.037Z,37.10
2023-02-08T14:25:29.391Z,40.75
2023-02-08T14:27:58.953Z,26.33
2023-02-08T14:30:28.784Z,44.88
2023-02-08T14:33:16.345Z,32.20
2023-02-08T14:35:51.993Z,38.97
2023-02-08T14:38:36.234Z,43.95
2023-02-08T14:41:04.705Z,47.75
2023-02-08T14:43:34.569Z,44.50
2023-02-08T14:46:39.834Z,47.75
2023-02-08T14:49:11.367Z,41.17
2023-02-08T14:51:40.827Z,46.28
2023-02-08T14:54:18.452Z,46.20
2023-02-08T14:56:52.860Z,47.08
2023-02-08T14:59:22.222Z,47.50
2023-02-08T15:01:53.509Z,38.92
2023-02-08T15:04:22.618Z,44.55
2023-02-08T15:07:02.249Z,42.75
2023-02-08T15:09:30.995Z,42.50
2023-02-08T15:12:02.046Z,43.10
2023-02-08T15:14:31.428Z,42.58
2023-02-08T15:17:01.542Z,44.22
2023-02-08T15:19:32.095Z,45.10
2023-02-08T15:22:18.009Z,40.47
2023-02-08T15:24:52.233Z,42.97
2023-02-08T15:27:22.782Z,44.08
2023-02-08T15:29:50.470Z,41.67
2023-02-08T15:32:20.234Z,44.28
2023-02-08T15:34:54.582Z,44.53
2023-02-08T15:37:22.650Z,39.45
2023-02-08T15:39:52.482Z,40.72
2023-02-08T15:42:21.565Z,40.30
2023-02-08T15:44:49.807Z,43.17
2023-02-08T15:47:19.551Z,43.72
2023-02-08T15:49:50.807Z,39.60
2023-02-08T15:52:20.884Z,41.17
2023-02-08T15:54:49.127Z,42.78
2023-02-08T15:57:24.046Z,37.17
2023-02-08T15:59:51.893Z,35.40
2023-02-08T16:02:24.833Z,38.28
2023-02-08T16:04:53.858Z,41.08
2023-02-08T16:07:26.835Z,40.60
2023-02-08T16:09:54.936Z,32.65
2023-02-08T16:12:24.512Z,36.75
2023-02-08T16:14:53.076Z,36.72
2023-02-08T16:17:34.467Z,37.28
2023-02-08T16:20:03.355Z,38.42
2023-02-08T16:22:33.185Z,39.58
2023-02-08T16:25:26.498Z,41.97
2023-02-08T16:27:54.026Z,42.50
2023-02-08T16:30:23.012Z,42.17
2023-02-08T16:32:50.745Z,41.25
2023-02-08T16:35:25.059Z,41.95
2023-02-08T16:37:58.791Z,39.83
2023-02-08T16:40:51.474Z,42.28
2023-02-08T16:43:21.698Z,41.07
2023-02-08T16:46:18.497Z,41.67
2023-02-08T16:48:47.008Z,38.55
2023-02-08T16:51:18.560Z,40.92
2023-02-08T16:53:47.605Z,37.67
2023-02-08T16:56:15.420Z,45.30
2023-02-08T16:58:42.925Z,43.35
2023-02-08T17:01:12.941Z,42.65
2023-02-08T17:03:40.930Z,43.47
2023-02-08T17:06:08.808Z,44.72
2023-02-08T17:08:37.671Z,41.97
2023-02-08T17:11:05.489Z,42.15
2023-02-08T17:13:33.020Z,37.00
2023-02-08T17:16:01.207Z,41.63
2023-02-08T17:18:28.733Z,43.55
2023-02-08T17:20:59.632Z,45.63
2023-02-08T17:23:27.568Z,41.38
2023-02-08T17:25:57.941Z,43.33
2023-02-08T17:28:25.467Z,42.67
2023-02-08T17:30:53.902Z,42.55
2023-02-08T17:33:21.527Z,42.17
2023-02-08T17:35:50.964Z,45.55
2023-02-08T17:38:19.474Z,43.67
2023-02-08T17:40:47.079Z,43.17
2023-02-08T17:43:16.319Z,39.70
2023-02-08T17:45:45.284Z,41.15
2023-02-08T17:48:14.200Z,39.45
2023-02-08T17:50:42.895Z,39.58
2023-02-08T17:53:10.587Z,43.42
2023-02-08T17:55:38.071Z,40.28
2023-02-08T17:58:05.581Z,39.85
2023-02-08T18:00:35.077Z,38.28
2023-02-08T18:03:03.099Z,39.13
2023-02-08T18:05:31.200Z,40.10
2023-02-08T18:07:58.701Z,43.92
2023-02-08T18:10:28.193Z,45.03
2023-02-08T18:12:55.770Z,41.47
2023-02-08T18:15:24.146Z,46.80
2023-02-08T18:17:52.982Z,38.83
2023-02-08T18:20:20.518Z,31.35
2023-02-08T18:22:48.041Z,32.63
2023-02-08T18:25:16.168Z,33.95
2023-02-08T18:27:43.682Z,32.65
2023-02-08T18:30:12.818Z,32.50
2023-02-08T18:32:40.781Z,32.20
2023-02-08T18:35:09.833Z,30.80
2023-02-08T18:37:37.741Z,31.95
2023-02-08T18:40:07.013Z,27.88
2023-02-08T18:42:36.074Z,32.83
2023-02-08T18:45:04.252Z,35.30
2023-02-08T18:47:31.793Z,32.03
2023-02-08T18:49:59.277Z,42.53
2023-02-08T18:52:29.152Z,24.55
2023-02-08T18:54:57.551Z,33.75
2023-02-08T18:57:25.698Z,31.35
2023-02-08T18:59:54.235Z,34.97
2023-02-08T19:02:24.359Z,33.33
2023-02-08T19:04:51.872Z,26.48
2023-02-08T19:07:19.387Z,38.50
2023-02-08T19:09:48.204Z,31.30
2023-02-08T19:12:15.873Z,38.25
2023-02-08T19:14:44.035Z,47.13
2023-02-08T19:17:14.646Z,36.58
2023-02-08T19:19:42.380Z,40.58
2023-02-08T19:22:10.223Z,38.20
2023-02-08T19:24:37.696Z,36.67
2023-02-08T19:27:06.604Z,57.35
2023-02-08T19:29:34.540Z,25.25
2023-02-08T19:32:02.145Z,37.75
2023-02-08T19:34:29.676Z,29.38
2023-02-08T19:36:57.405Z,31.10
2023-02-08T19:39:26.679Z,32.53
2023-02-08T19:41:54.992Z,36.17
2023-02-08T19:44:23.877Z,41.78
2023-02-08T19:46:52.604Z,39.72
2023-02-08T19:49:20.796Z,35.33
2023-02-08T19:51:48.388Z,35.88
2023-02-08T19:54:18.083Z,41.42
2023-02-08T19:56:46.275Z,39.25
2023-02-08T19:59:18.343Z,36.67
2023-02-08T20:01:47.526Z,37.55
2023-02-08T20:04:15.381Z,45.40
2023-02-08T20:06:44.922Z,50.80
2023-02-08T20:09:13.615Z,46.83
2023-02-08T20:11:55.822Z,48.05
2023-02-08T20:14:24.494Z,50.63
2023-02-08T20:16:53.478Z,36.83
2023-02-08T20:19:21.245Z,44.05
2023-02-08T20:21:48.774Z,42.47
2023-02-08T20:24:16.746Z,28.58
2023-02-08T20:26:46.297Z,41.75
2023-02-08T20:29:14.556Z,26.10
2023-02-08T20:31:44.550Z,40.47
2023-02-08T20:34:15.098Z,25.77
2023-02-08T20:36:49.719Z,34.10
2023-02-08T20:39:21.249Z,26.20
2023-02-08T20:41:48.747Z,27.83
2023-02-08T20:44:17.819Z,30.40
2023-02-08T20:46:46.601Z,33.00
2023-02-08T20:49:22.058Z,32.53
2023-02-08T20:51:52.178Z,33.03
2023-02-08T20:54:19.727Z,19.10
2023-02-08T20:56:47.201Z,38.22
2023-02-08T20:59:15.827Z,38.63
2023-02-08T21:01:44.000Z,35.63
2023-02-08T21:04:12.303Z,36.33
2023-02-08T21:06:43.450Z,34.00
2023-02-08T21:09:14.040Z,32.00
2023-02-08T21:11:41.978Z,37.03
2023-02-08T21:14:10.784Z,37.33
2023-02-08T21:16:39.329Z,35.60
2023-02-08T21:19:06.865Z,28.90
2023-02-08T21:21:34.407Z,28.42
2023-02-08T21:24:03.434Z,34.67
2023-02-08T21:26:30.924Z,36.13
2023-02-08T21:28:58.754Z,40.00
2023-02-08T21:31:27.075Z,37.47
2023-02-08T21:33:54.673Z,29.40
2023-02-08T21:36:23.751Z,29.38
2023-02-08T21:38:51.681Z,31.65
2023-02-08T21:41:22.715Z,32.28
2023-02-08T21:43:50.876Z,18.83
2023-02-08T21:46:18.935Z,27.77
2023-02-08T21:49:04.746Z,28.25
2023-02-08T21:51:50.062Z,28.10
2023-02-08T21:54:37.622Z,27.95
2023-02-08T21:57:08.111Z,31.55
2023-02-08T21:59:37.017Z,26.55
2023-02-08T22:02:05.685Z,31.00
2023-02-08T22:04:33.596Z,32.85
2023-02-08T22:07:01.310Z,28.42
2023-02-08T22:09:29.839Z,30.38
2023-02-08T22:11:57.805Z,32.75
2023-02-08T22:14:26.718Z,32.60
2023-02-08T22:16:54.406Z,32.22
2023-02-08T22:19:21.910Z,33.90
2023-02-08T22:21:49.415Z,33.28
2023-02-08T22:24:16.917Z,31.40
2023-02-08T22:26:45.713Z,30.67
2023-02-08T22:29:13.207Z,29.83
2023-02-08T22:31:42.162Z,30.95
2023-02-08T22:34:09.794Z,30.40
2023-02-08T22:36:37.287Z,31.83
2023-02-08T22:39:04.884Z,28.48
2023-02-08T22:41:32.385Z,28.95
2023-02-08T22:43:59.963Z,25.02
2023-02-08T22:46:27.617Z,26.23
2023-02-08T22:48:56.526Z,29.77
2023-02-08T22:51:24.016Z,25.42
2023-02-08T22:53:51.511Z,27.33
2023-02-08T22:56:19.529Z,25.85
2023-02-08T22:58:47.059Z,24.15
2023-02-08T23:01:16.931Z,28.40
2023-02-08T23:03:44.579Z,28.73
2023-02-08T23:06:16.949Z,22.63
2023-02-08T23:08:44.848Z,30.23
2023-02-08T23:11:13.945Z,25.00
2023-02-08T23:13:41.612Z,27.35
2023-02-08T23:16:12.960Z,24.73
2023-02-08T23:18:40.604Z,26.30
2023-02-08T23:21:08.839Z,26.65
2023-02-08T23:23:38.106Z,28.92
2023-02-08T23:26:06.800Z,24.90
2023-02-08T23:28:34.371Z,28.42
2023-02-08T23:31:05.680Z,28.65
2023-02-08T23:33:33.772Z,29.23
2023-02-08T23:36:01.297Z,28.85
2023-02-08T23:38:28.843Z,27.52
2023-02-08T23:40:57.784Z,27.90
2023-02-08T23:43:25.572Z,26.45
2023-02-08T23:45:53.026Z,26.90
2023-02-08T23:48:20.814Z,28.60
2023-02-08T23:50:57.651Z,26.35
2023-02-08T23:53:26.735Z,25.45
2023-02-08T23:56:05.901Z,25.83
2023-02-08T23:58:33.455Z,25.70
